createdAt,value
2023-10-23T00:01:45.707Z,14.57
2023-10-23T00:04:13.140Z,14.57
2023-10-23T00:06:40.655Z,14.43
2023-10-23T00:09:07.995Z,14.41
2023-10-23T00:11:35.352Z,14.41
2023-10-23T00:14:02.656Z,14.33
2023-10-23T00:16:30.078Z,14.45
2023-10-23T00:18:58.810Z,14.38
2023-10-23T00:21:26.241Z,14.09
2023-10-23T00:23:53.581Z,14.10
2023-10-23T00:26:20.996Z,13.94
2023-10-23T00:28:49.238Z,13.82
2023-10-23T00:31:16.836Z,13.80
2023-10-23T00:33:44.326Z,13.47
2023-10-23T00:36:13.059Z,13.73
2023-10-23T00:38:40.365Z,13.85
2023-10-23T00:41:07.672Z,13.97
2023-10-23T00:43:34.989Z,13.39
2023-10-23T00:46:06.511Z,13.63
2023-10-23T00:48:34.047Z,13.86
2023-10-23T00:51:02.863Z,14.08
2023-10-23T00:53:36.677Z,14.10
2023-10-23T00:56:05.302Z,14.06
2023-10-23T00:58:33.291Z,14.05
2023-10-23T01:01:02.886Z,14.01
2023-10-23T01:03:30.707Z,13.90
2023-10-23T01:05:58.064Z,13.99
2023-10-23T01:08:26.208Z,14.16
2023-10-23T01:10:54.950Z,14.31
2023-10-23T01:13:22.513Z,14.32
2023-10-23T01:15:49.846Z,14.27
2023-10-23T01:18:17.173Z,14.11
2023-10-23T01:20:44.636Z,14.19
2023-10-23T01:23:12.305Z,13.94
2023-10-23T01:25:41.091Z,13.91
2023-10-23T01:28:08.540Z,14.10
2023-10-23T01:30:35.889Z,14.11
2023-10-23T01:33:03.380Z,14.23
2023-10-23T01:35:30.821Z,14.15
2023-10-23T01:37:58.128Z,14.26
2023-10-23T01:40:25.413Z,14.06
2023-10-23T01:42:54.132Z,13.98
2023-10-23T01:45:21.569Z,13.84
2023-10-23T01:47:48.925Z,13.84
2023-10-23T01:50:16.427Z,13.69
2023-10-23T01:52:43.756Z,13.94
2023-10-23T01:55:11.034Z,14.13
2023-10-23T01:57:38.436Z,14.12
2023-10-23T02:00:08.623Z,14.16
2023-10-23T02:02:36.027Z,13.99
2023-10-23T02:05:03.877Z,13.60
2023-10-23T02:07:31.170Z,13.92
2023-10-23T02:09:58.560Z,13.99
2023-10-23T02:12:25.928Z,13.97
2023-10-23T02:14:53.289Z,13.89
2023-10-23T02:17:22.067Z,13.97
2023-10-23T02:19:49.442Z,13.82
2023-10-23T02:22:16.781Z,13.70
2023-10-23T02:24:44.128Z,13.89
2023-10-23T02:27:11.457Z,14.04
2023-10-23T02:29:38.756Z,14.09
2023-10-23T02:32:06.607Z,13.62
2023-10-23T02:34:35.640Z,13.24
2023-10-23T02:37:03.358Z,13.06
2023-10-23T02:39:30.778Z,13.56
2023-10-23T02:41:58.134Z,13.82
2023-10-23T02:44:26.449Z,14.03
2023-10-23T02:46:53.773Z,14.14
2023-10-23T02:49:21.099Z,14.20
2023-10-23T02:51:49.871Z,14.17
2023-10-23T02:54:17.234Z,14.27
2023-10-23T02:56:44.585Z,14.19
2023-10-23T02:59:12.161Z,14.18
2023-10-23T03:01:39.500Z,13.84
2023-10-23T03:04:07.038Z,13.85
2023-10-23T03:06:34.430Z,13.85
2023-10-23T03:09:03.365Z,14.02
2023-10-23T03:11:30.684Z,14.07
2023-10-23T03:13:57.984Z,14.20
2023-10-23T03:16:25.343Z,14.01
2023-10-23T03:18:52.769Z,13.95
2023-10-23T03:21:20.204Z,14.06
2023-10-23T03:23:47.566Z,14.09
2023-10-23T03:26:16.309Z,13.96
2023-10-23T03:28:43.593Z,13.95
2023-10-23T03:31:10.990Z,13.94
2023-10-23T03:33:38.303Z,13.86
2023-10-23T03:36:06.200Z,13.99
2023-10-23T03:38:33.502Z,13.97
2023-10-23T03:41:01.071Z,14.07
2023-10-23T03:43:29.816Z,14.01
2023-10-23T03:45:57.202Z,13.77
2023-10-23T03:48:24.552Z,13.88
2023-10-23T03:50:52.038Z,13.74
2023-10-23T03:53:19.359Z,13.54
2023-10-23T03:55:46.665Z,13.73
2023-10-23T03:58:13.976Z,13.73
2023-10-23T04:00:42.695Z,13.77
2023-10-23T04:03:10.068Z,13.70
2023-10-23T04:05:40.356Z,13.79
2023-10-23T04:08:07.718Z,13.91
2023-10-23T04:10:35.053Z,13.71
2023-10-23T04:13:02.469Z,13.56
2023-10-23T04:15:29.801Z,13.59
2023-10-23T04:17:58.533Z,13.56
2023-10-23T04:20:25.902Z,13.81
2023-10-23T04:22:53.196Z,13.74
2023-10-23T04:25:20.487Z,13.54
2023-10-23T04:27:47.815Z,13.44
2023-10-23T04:30:15.172Z,13.43
2023-10-23T04:32:42.480Z,13.28
2023-10-23T04:35:11.192Z,13.08
2023-10-23T04:37:38.474Z,12.94
2023-10-23T04:40:07.487Z,13.15
2023-10-23T04:42:34.819Z,13.12
2023-10-23T04:45:02.146Z,12.99
2023-10-23T04:47:29.483Z,12.88
2023-10-23T04:49:56.889Z,13.06
2023-10-23T04:52:25.626Z,13.10
2023-10-23T04:54:53.774Z,13.04
2023-10-23T04:57:21.160Z,13.06
2023-10-23T04:59:48.461Z,12.88
2023-10-23T05:02:15.744Z,12.78
2023-10-23T05:04:43.128Z,12.67
2023-10-23T05:07:10.455Z,12.85
2023-10-23T05:09:39.371Z,13.04
2023-10-23T05:12:07.521Z,13.18
2023-10-23T05:14:34.845Z,13.20
2023-10-23T05:17:02.206Z,12.88
2023-10-23T05:19:29.488Z,12.99
2023-10-23T05:21:56.788Z,12.98
2023-10-23T05:24:24.116Z,12.98
2023-10-23T05:26:52.894Z,13.08
2023-10-23T05:29:20.180Z,12.85
2023-10-23T05:31:48.158Z,13.06
2023-10-23T05:34:15.549Z,13.15
2023-10-23T05:36:42.864Z,13.13
2023-10-23T05:39:10.164Z,13.04
2023-10-23T05:41:37.458Z,13.01
2023-10-23T05:44:06.369Z,12.89
2023-10-23T05:46:33.731Z,12.95
2023-10-23T05:49:01.081Z,13.16
2023-10-23T05:51:28.431Z,13.19
2023-10-23T05:53:57.505Z,13.33
2023-10-23T05:56:24.885Z,13.15
2023-10-23T05:58:52.320Z,13.24
2023-10-23T06:01:21.073Z,13.21
2023-10-23T06:03:48.438Z,13.32
2023-10-23T06:06:15.768Z,13.18
2023-10-23T06:08:43.106Z,13.31
2023-10-23T06:11:12.199Z,13.31
2023-10-23T06:13:39.938Z,13.56
2023-10-23T06:16:07.894Z,13.37
2023-10-23T06:18:38.060Z,13.53
2023-10-23T06:21:06.332Z,13.47
2023-10-23T06:23:34.061Z,13.54
2023-10-23T06:26:01.784Z,13.65
2023-10-23T06:28:29.099Z,13.68
2023-10-23T06:30:56.525Z,13.44
2023-10-23T06:33:23.866Z,13.43
2023-10-23T06:35:59.072Z,13.12
2023-10-23T06:38:26.573Z,13.17
2023-10-23T06:40:53.913Z,12.98
2023-10-23T06:43:22.243Z,12.96
2023-10-23T06:46:01.602Z,13.21
2023-10-23T06:48:30.476Z,13.18
2023-10-23T06:50:59.928Z,13.19
2023-10-23T06:53:27.363Z,13.29
2023-10-23T06:55:55.728Z,12.82
2023-10-23T06:58:23.317Z,13.01
2023-10-23T07:00:50.672Z,12.87
2023-10-23T07:03:18.257Z,12.74
2023-10-23T07:05:45.815Z,12.80
2023-10-23T07:08:14.533Z,12.93
2023-10-23T07:10:41.899Z,13.08
2023-10-23T07:13:21.446Z,12.98
2023-10-23T07:15:50.622Z,13.06
2023-10-23T07:18:18.185Z,13.11
2023-10-23T07:20:53.182Z,13.06
2023-10-23T07:23:21.911Z,13.14
2023-10-23T07:25:49.258Z,12.96
2023-10-23T07:28:16.545Z,13.07
2023-10-23T07:30:43.846Z,13.17
2023-10-23T07:33:11.155Z,13.21
2023-10-23T07:35:52.625Z,13.47
2023-10-23T07:38:21.860Z,13.46
2023-10-23T07:40:49.222Z,13.60
2023-10-23T07:43:16.635Z,13.83
2023-10-23T07:45:44.011Z,13.95
2023-10-23T07:48:11.402Z,14.09
2023-10-23T07:50:38.718Z,13.91
2023-10-23T07:53:06.006Z,13.69
2023-10-23T07:55:34.705Z,14.02
2023-10-23T07:58:02.114Z,13.84
2023-10-23T08:00:29.434Z,13.77
2023-10-23T08:02:56.821Z,14.01
2023-10-23T08:05:24.425Z,13.69
2023-10-23T08:07:51.821Z,14.02
2023-10-23T08:10:19.207Z,13.80
2023-10-23T08:12:47.907Z,13.85
2023-10-23T08:15:15.325Z,13.84
2023-10-23T08:17:43.177Z,13.83
2023-10-23T08:20:11.297Z,13.90
2023-10-23T08:22:38.804Z,13.99
2023-10-23T08:25:07.088Z,13.81
2023-10-23T08:27:34.418Z,13.84
2023-10-23T08:30:03.327Z,13.87
2023-10-23T08:32:41.418Z,13.59
2023-10-23T08:35:17.851Z,14.05
2023-10-23T08:37:45.303Z,14.11
2023-10-23T08:40:13.294Z,14.37
2023-10-23T08:42:41.406Z,14.45
2023-10-23T08:45:10.606Z,14.66
2023-10-23T08:47:37.920Z,14.76
2023-10-23T08:50:07.359Z,14.76
2023-10-23T08:52:39.630Z,14.86
2023-10-23T08:55:12.249Z,14.77
2023-10-23T08:57:42.689Z,14.80
2023-10-23T09:00:12.921Z,14.75
2023-10-23T09:02:52.137Z,14.71
2023-10-23T09:05:21.887Z,14.65
2023-10-23T09:07:50.242Z,14.83
2023-10-23T09:10:17.699Z,14.97
2023-10-23T09:12:45.062Z,15.40
2023-10-23T09:15:17.871Z,15.49
2023-10-23T09:17:45.790Z,15.48
2023-10-23T09:20:26.562Z,15.11
2023-10-23T09:22:56.100Z,15.55
2023-10-23T09:25:24.853Z,15.72
2023-10-23T09:27:53.430Z,15.97
2023-10-23T09:30:22.168Z,16.12
2023-10-23T09:32:52.562Z,15.82
2023-10-23T09:35:20.610Z,15.75
2023-10-23T09:37:48.119Z,16.13
2023-10-23T09:40:16.013Z,16.49
2023-10-23T09:42:43.499Z,16.21
2023-10-23T09:45:11.475Z,16.46
2023-10-23T09:47:40.698Z,16.76
2023-10-23T09:50:08.903Z,17.16
2023-10-23T09:52:37.550Z,16.44
2023-10-23T09:55:06.466Z,16.26
2023-10-23T09:57:36.143Z,16.07
2023-10-23T10:00:05.612Z,15.35
2023-10-23T10:02:36.721Z,15.56
2023-10-23T10:05:08.577Z,15.89
2023-10-23T10:07:46.142Z,15.81
2023-10-23T10:10:13.898Z,15.87
2023-10-23T10:12:43.225Z,16.01
2023-10-23T10:15:10.973Z,16.18
2023-10-23T10:17:40.854Z,16.13
2023-10-23T10:20:12.746Z,15.61
2023-10-23T10:22:42.587Z,15.88
2023-10-23T10:25:12.134Z,16.08
2023-10-23T10:27:39.514Z,16.07
2023-10-23T10:30:27.724Z,15.79
2023-10-23T10:34:18.474Z,16.04
2023-10-23T10:35:50.637Z,16.22
2023-10-23T10:38:22.570Z,16.06
2023-10-23T10:40:57.147Z,16.35
2023-10-23T10:43:25.540Z,16.22
2023-10-23T10:45:52.928Z,16.53
2023-10-23T10:48:20.290Z,15.66
2023-10-23T10:50:47.700Z,16.15
2023-10-23T10:53:16.480Z,16.35
2023-10-23T10:55:45.520Z,16.78
2023-10-23T10:58:13.825Z,16.74
2023-10-23T11:00:41.292Z,16.87
2023-10-23T11:03:09.090Z,16.91
2023-10-23T11:05:37.379Z,17.16
2023-10-23T11:08:05.878Z,17.10
2023-10-23T11:10:34.784Z,17.25
2023-10-23T11:13:02.644Z,17.00
2023-10-23T11:15:30.101Z,17.01
2023-10-23T11:17:57.611Z,17.25
2023-10-23T11:20:25.934Z,17.52
2023-10-23T11:22:53.217Z,17.43
2023-10-23T11:25:20.553Z,17.52
2023-10-23T11:27:52.662Z,17.93
2023-10-23T11:30:24.662Z,17.93
2023-10-23T11:32:52.106Z,18.17
2023-10-23T11:35:19.537Z,18.21
2023-10-23T11:37:46.898Z,18.19
2023-10-23T11:40:21.376Z,18.22
2023-10-23T11:42:50.912Z,18.50
2023-10-23T11:45:20.029Z,18.57
2023-10-23T11:47:50.075Z,18.51
2023-10-23T11:50:21.086Z,18.35
2023-10-23T11:52:50.416Z,18.43
2023-10-23T11:55:19.551Z,18.44
2023-10-23T11:57:47.767Z,18.35
2023-10-23T12:00:16.740Z,18.64
2023-10-23T12:02:46.762Z,18.76
2023-10-23T12:05:16.141Z,18.61
2023-10-23T12:07:45.966Z,18.65
2023-10-23T12:10:14.489Z,18.98
2023-10-23T12:12:43.177Z,19.13
2023-10-23T12:15:14.333Z,19.03
2023-10-23T12:17:42.666Z,19.13
2023-10-23T12:20:12.784Z,19.15
2023-10-23T12:22:41.722Z,19.22
2023-10-23T12:25:10.544Z,19.08
2023-10-23T12:27:45.324Z,19.18
2023-10-23T12:30:14.045Z,19.11
2023-10-23T12:33:14.833Z,18.89
2023-10-23T12:35:32.619Z,19.01
2023-10-23T12:38:00.037Z,19.18
2023-10-23T12:40:30.946Z,19.23
2023-10-23T12:43:00.649Z,19.28
2023-10-23T12:45:28.010Z,19.30
2023-10-23T12:47:55.416Z,19.27
2023-10-23T12:50:22.786Z,19.22
2023-10-23T12:52:51.526Z,19.34
2023-10-23T12:55:18.881Z,19.31
2023-10-23T12:57:46.196Z,19.15
2023-10-23T13:00:14.267Z,19.22
2023-10-23T13:02:41.649Z,19.27
2023-10-23T13:05:09.324Z,19.34
2023-10-23T13:07:36.775Z,19.43
2023-10-23T13:10:06.614Z,19.62
2023-10-23T13:12:34.020Z,19.55
2023-10-23T13:15:01.401Z,19.53
2023-10-23T13:17:28.841Z,19.60
2023-10-23T13:19:56.217Z,19.61
2023-10-23T13:22:23.665Z,19.44
2023-10-23T13:24:51.037Z,19.46
2023-10-23T13:27:19.716Z,19.50
2023-10-23T13:29:47.030Z,19.75
2023-10-23T13:32:15.690Z,19.88
2023-10-23T13:34:43.318Z,19.83
2023-10-23T13:37:12.616Z,20.06
2023-10-23T13:39:39.990Z,20.18
2023-10-23T13:42:07.401Z,20.19
2023-10-23T13:44:36.067Z,20.21
2023-10-23T13:47:03.999Z,20.15
2023-10-23T13:49:31.467Z,20.07
2023-10-23T13:51:58.865Z,20.04
2023-10-23T13:54:26.226Z,19.96
2023-10-23T13:56:53.531Z,19.87
2023-10-23T13:59:20.858Z,19.93
2023-10-23T14:01:49.604Z,19.89
2023-10-23T14:04:17.013Z,19.82
2023-10-23T14:06:44.521Z,19.91
2023-10-23T14:09:43.971Z,19.57
2023-10-23T14:12:01.833Z,19.54
2023-10-23T14:14:29.959Z,19.42
2023-10-23T14:16:59.579Z,19.56
2023-10-23T14:19:38.758Z,19.84
2023-10-23T14:22:10.698Z,19.58
2023-10-23T14:24:38.269Z,19.62
2023-10-23T14:27:05.764Z,19.88
2023-10-23T14:29:33.052Z,19.92
2023-10-23T14:32:01.855Z,19.76
2023-10-23T14:34:29.489Z,19.96
2023-10-23T14:36:57.078Z,19.57
2023-10-23T14:39:25.672Z,19.74
2023-10-23T14:41:53.115Z,20.09
2023-10-23T14:44:20.430Z,20.24
2023-10-23T14:46:49.605Z,19.96
2023-10-23T14:49:18.491Z,20.12
2023-10-23T14:51:45.829Z,19.58
2023-10-23T14:54:13.135Z,19.92
2023-10-23T14:56:40.444Z,19.92
2023-10-23T14:59:07.781Z,19.87
2023-10-23T15:01:35.221Z,19.82
2023-10-23T15:04:02.701Z,19.55
2023-10-23T15:06:31.491Z,19.31
2023-10-23T15:08:58.820Z,19.20
2023-10-23T15:11:26.173Z,18.75
2023-10-23T15:13:53.615Z,18.83
2023-10-23T15:16:21.025Z,18.87
2023-10-23T15:18:48.464Z,18.75
2023-10-23T15:21:15.759Z,18.63
2023-10-23T15:23:44.435Z,18.89
2023-10-23T15:26:11.925Z,18.94
2023-10-23T15:28:39.386Z,18.84
2023-10-23T15:31:07.154Z,18.61
2023-10-23T15:33:35.323Z,18.62
2023-10-23T15:36:03.545Z,18.67
2023-10-23T15:38:31.314Z,18.74
2023-10-23T15:41:07.427Z,18.85
2023-10-23T15:43:35.378Z,18.94
2023-10-23T15:46:03.281Z,19.01
2023-10-23T15:48:31.190Z,19.05
2023-10-23T15:50:59.765Z,19.08
2023-10-23T15:53:28.079Z,19.12
2023-10-23T15:55:56.510Z,18.85
2023-10-23T15:58:25.391Z,18.36
2023-10-23T16:00:53.298Z,18.49
2023-10-23T16:03:21.072Z,18.52
2023-10-23T16:05:48.539Z,18.58
2023-10-23T16:08:16.024Z,18.68
2023-10-23T16:10:43.589Z,18.18
2023-10-23T16:13:10.944Z,18.63
2023-10-23T16:15:39.741Z,18.59
2023-10-23T16:18:07.125Z,18.07
2023-10-23T16:20:34.472Z,18.26
2023-10-23T16:23:01.770Z,18.23
2023-10-23T16:25:29.090Z,18.23
2023-10-23T16:27:56.449Z,18.29
2023-10-23T16:30:23.973Z,18.43
2023-10-23T16:32:54.084Z,18.44
2023-10-23T16:35:21.680Z,18.42
2023-10-23T16:37:48.997Z,18.27
2023-10-23T16:40:16.575Z,18.15
2023-10-23T16:42:43.881Z,18.19
2023-10-23T16:45:11.427Z,18.19
2023-10-23T16:47:39.085Z,18.27
2023-10-23T16:50:09.236Z,18.33
2023-10-23T16:52:37.043Z,18.28
2023-10-23T16:55:05.866Z,18.23
2023-10-23T16:57:33.330Z,18.07
2023-10-23T17:00:00.637Z,18.09
2023-10-23T17:02:28.131Z,17.95
2023-10-23T17:04:55.617Z,17.82
2023-10-23T17:07:24.332Z,17.79
2023-10-23T17:09:51.664Z,17.43
2023-10-23T17:12:18.944Z,17.49
2023-10-23T17:14:49.309Z,17.51
2023-10-23T17:17:16.705Z,17.18
2023-10-23T17:19:46.758Z,17.21
2023-10-23T17:22:14.289Z,17.23
2023-10-23T17:24:42.968Z,17.13
2023-10-23T17:27:10.258Z,17.14
2023-10-23T17:29:37.818Z,17.21
2023-10-23T17:32:06.636Z,17.10
2023-10-23T17:34:34.030Z,17.10
2023-10-23T17:37:01.537Z,17.10
2023-10-23T17:39:28.826Z,17.11
2023-10-23T17:41:57.497Z,16.91
2023-10-23T17:44:24.792Z,16.90
2023-10-23T17:46:52.291Z,16.97
2023-10-23T17:49:19.876Z,16.95
2023-10-23T17:51:47.204Z,16.94
2023-10-23T17:54:14.540Z,16.95
2023-10-23T17:56:41.840Z,16.91
2023-10-23T17:59:10.610Z,16.92
2023-10-23T18:01:40.160Z,16.91
2023-10-23T18:04:11.265Z,16.91
2023-10-23T18:06:39.434Z,16.92
2023-10-23T18:09:06.819Z,16.87
2023-10-23T18:11:34.218Z,16.78
2023-10-23T18:14:01.651Z,16.77
2023-10-23T18:16:30.371Z,16.70
2023-10-23T18:18:57.786Z,16.76
2023-10-23T18:21:25.214Z,16.77
2023-10-23T18:23:52.843Z,16.76
2023-10-23T18:26:20.167Z,16.70
2023-10-23T18:28:47.467Z,16.04
2023-10-23T18:31:14.847Z,16.10
2023-10-23T18:33:43.675Z,16.20
2023-10-23T18:36:14.450Z,16.27
2023-10-23T18:38:41.978Z,16.32
2023-10-23T18:41:09.279Z,16.32
2023-10-23T18:43:36.715Z,16.36
2023-10-23T18:46:04.369Z,16.33
2023-10-23T18:48:31.839Z,16.32
2023-10-23T18:51:00.985Z,16.30
2023-10-23T18:53:28.576Z,16.34
2023-10-23T18:55:55.894Z,16.33
2023-10-23T18:58:23.261Z,16.31
2023-10-23T19:00:50.815Z,16.20
2023-10-23T19:03:18.530Z,16.04
2023-10-23T19:05:45.881Z,16.02
2023-10-23T19:08:14.559Z,15.88
2023-10-23T19:10:41.908Z,15.72
2023-10-23T19:13:09.232Z,15.60
2023-10-23T19:15:36.558Z,15.34
2023-10-23T19:18:04.104Z,15.62
2023-10-23T19:20:31.457Z,15.58
2023-10-23T19:22:58.744Z,15.54
2023-10-23T19:25:27.481Z,15.75
2023-10-23T19:27:54.817Z,15.63
2023-10-23T19:30:22.107Z,15.49
2023-10-23T19:32:50.112Z,15.32
2023-10-23T19:35:18.015Z,15.56
2023-10-23T19:37:45.810Z,15.71
2023-10-23T19:40:14.389Z,15.72
2023-10-23T19:42:51.711Z,15.73
2023-10-23T19:45:20.003Z,15.69
2023-10-23T19:47:47.854Z,15.60
2023-10-23T19:50:16.285Z,15.63
2023-10-23T19:52:44.835Z,15.67
2023-10-23T19:55:43.591Z,15.67
2023-10-23T19:58:03.264Z,15.59
2023-10-23T20:00:30.839Z,15.77
2023-10-23T20:02:58.134Z,15.52
2023-10-23T20:05:25.513Z,15.63
2023-10-23T20:07:52.823Z,15.65
2023-10-23T20:10:20.234Z,15.54
2023-10-23T20:12:47.556Z,15.48
2023-10-23T20:15:16.292Z,15.60
2023-10-23T20:17:43.624Z,15.45
2023-10-23T20:20:12.008Z,15.35
2023-10-23T20:22:40.342Z,15.30
2023-10-23T20:25:09.195Z,15.22
2023-10-23T20:27:37.476Z,15.46
2023-10-23T20:30:06.355Z,15.54
2023-10-23T20:32:35.677Z,15.57
2023-10-23T20:35:03.223Z,15.59
2023-10-23T20:37:30.573Z,15.41
2023-10-23T20:39:58.152Z,15.37
2023-10-23T20:42:25.615Z,15.37
2023-10-23T20:44:53.241Z,15.16
2023-10-23T20:47:20.566Z,14.96
2023-10-23T20:49:49.236Z,14.85
2023-10-23T20:52:16.566Z,14.82
2023-10-23T20:54:43.975Z,14.94
2023-10-23T20:57:11.260Z,15.06
2023-10-23T20:59:38.709Z,14.75
2023-10-23T21:02:06.750Z,14.71
2023-10-23T21:04:34.575Z,14.65
2023-10-23T21:07:03.934Z,14.78
2023-10-23T21:09:31.680Z,14.57
2023-10-23T21:12:00.136Z,14.58
2023-10-23T21:14:27.645Z,14.82
2023-10-23T21:16:55.141Z,14.71
2023-10-23T21:19:22.826Z,14.87
2023-10-23T21:21:50.435Z,14.92
2023-10-23T21:24:19.375Z,15.09
2023-10-23T21:26:46.905Z,15.20
2023-10-23T21:29:17.261Z,15.49
2023-10-23T21:31:45.280Z,15.49
2023-10-23T21:34:12.866Z,15.44
2023-10-23T21:36:40.294Z,15.32
2023-10-23T21:39:07.595Z,15.30
2023-10-23T21:41:36.925Z,15.23
2023-10-23T21:44:04.890Z,15.25
2023-10-23T21:46:32.331Z,15.03
2023-10-23T21:49:01.125Z,14.82
2023-10-23T21:51:28.624Z,14.53
2023-10-23T21:53:56.930Z,14.32
2023-10-23T21:57:16.494Z,14.39
2023-10-23T21:59:15.419Z,14.46
2023-10-23T22:01:43.465Z,14.46
2023-10-23T22:04:11.216Z,14.56
2023-10-23T22:06:39.395Z,14.72
2023-10-23T22:09:07.405Z,14.90
2023-10-23T22:11:35.294Z,14.95
2023-10-23T22:14:03.167Z,14.76
2023-10-23T22:16:31.913Z,14.70
2023-10-23T22:18:59.245Z,14.66
2023-10-23T22:21:26.522Z,14.67
2023-10-23T22:23:53.817Z,14.86
2023-10-23T22:26:21.120Z,14.91
2023-10-23T22:28:48.427Z,14.94
2023-10-23T22:31:15.830Z,15.09
2023-10-23T22:33:44.590Z,15.16
2023-10-23T22:36:11.973Z,14.96
2023-10-23T22:38:39.299Z,15.18
2023-10-23T22:41:06.593Z,15.24
2023-10-23T22:43:33.963Z,15.21
2023-10-23T22:46:03.619Z,15.38
2023-10-23T22:48:31.788Z,15.59
2023-10-23T22:51:01.578Z,15.71
2023-10-23T22:53:29.391Z,15.79
2023-10-23T22:55:59.505Z,15.81
2023-10-23T22:58:29.706Z,15.81
2023-10-23T23:00:57.693Z,15.63
2023-10-23T23:03:25.743Z,15.48
2023-10-23T23:05:54.990Z,15.16
2023-10-23T23:08:25.142Z,15.16
2023-10-23T23:10:52.983Z,15.34
2023-10-23T23:13:20.868Z,15.38
2023-10-23T23:15:49.845Z,15.27
2023-10-23T23:18:19.860Z,14.98
2023-10-23T23:20:50.542Z,14.93
2023-10-23T23:23:17.835Z,14.89
2023-10-23T23:25:46.534Z,14.58
2023-10-23T23:28:13.888Z,14.31
2023-10-23T23:30:41.664Z,14.31
2023-10-23T23:33:09.053Z,14.09
2023-10-23T23:35:36.368Z,14.09
2023-10-23T23:38:03.662Z,14.36
2023-10-23T23:40:31.112Z,14.38
2023-10-23T23:42:59.801Z,14.29
2023-10-23T23:45:27.071Z,14.26
2023-10-23T23:47:54.407Z,14.28
2023-10-23T23:50:21.761Z,14.31
2023-10-23T23:52:49.113Z,14.33
2023-10-23T23:55:16.573Z,14.29
2023-10-23T23:57:43.930Z,14.21
